Time;durP1;ratioP1;P1;durP2;ratioP2;P2;SDS_P1;SDS_P2;PMS_P1;PMS_P2;Temp;Humidity;BMP_temperature;BMP_pressure;BME280_temperature;BME280_humidity;BME280_pressure;Samples;Min_cycle;Max_cycle;Signal;HPM_P1;HPM_P2
2022/11/11 00:00:17;;;;;;;58.27;34.67;;;;;;;9.64;100.00;95564.94;5031082;28;20356;-60
2022/11/11 00:02:43;;;;;;;67.13;38.27;;;;;;;9.42;100.00;95546.13;5033701;28;20213;-58
2022/11/11 00:05:08;;;;;;;67.37;40.20;;;;;;;9.66;100.00;95568.19;5033310;28;20214;-61
2022/11/11 00:07:34;;;;;;;72.20;41.33;;;;;;;9.79;100.00;95607.09;5033657;28;20650;-60
2022/11/11 00:09:59;;;;;;;64.80;39.00;;;;;;;9.57;100.00;95589.09;5033367;28;20580;-61
2022/11/11 00:12:24;;;;;;;76.60;40.93;;;;;;;9.50;100.00;95584.50;5033464;28;20190;-61
2022/11/11 00:14:50;;;;;;;70.73;40.70;;;;;;;9.21;100.00;95550.91;5013784;28;20241;-60
2022/11/11 00:25:28;;;;;;;67.47;37.63;;;;;;;9.06;100.00;95560.31;5033121;28;20614;-59
2022/11/11 00:27:53;;;;;;;64.30;38.30;;;;;;;9.11;100.00;95563.34;5033111;28;20579;-59
2022/11/11 00:30:19;;;;;;;66.00;37.47;;;;;;;9.01;100.00;95554.72;5033061;28;20225;-57
2022/11/11 00:32:44;;;;;;;67.13;37.13;;;;;;;9.10;100.00;95555.84;5032906;28;20201;-62
2022/11/11 00:36:02;;;;;;;60.93;36.27;;;;;;;9.07;100.00;95556.84;4998953;28;20226;-61
2022/11/11 00:38:09;;;;;;;55.83;33.97;;;;;;;9.10;100.00;95566.00;5019133;28;20225;-63
2022/11/11 00:40:34;;;;;;;58.13;35.33;;;;;;;9.04;100.00;95564.69;5032749;28;20241;-61
2022/11/11 00:43:00;;;;;;;58.13;32.73;;;;;;;9.15;100.00;95572.41;5032955;28;20190;-61
2022/11/11 00:45:26;;;;;;;56.47;32.33;;;;;;;9.28;100.00;95585.94;5014834;28;20210;-61
2022/11/11 00:53:24;;;;;;;45.80;29.33;;;;;;;9.31;100.00;95574.78;5032976;28;20197;-60
2022/11/11 00:55:51;;;;;;;48.63;28.03;;;;;;;9.32;100.00;95577.19;5032618;28;20206;-61
2022/11/11 00:58:16;;;;;;;48.17;28.40;;;;;;;9.29;100.00;95572.31;5032593;28;20300;-59
2022/11/11 01:00:42;;;;;;;47.20;27.93;;;;;;;9.54;100.00;95591.00;5031905;28;20306;-61
2022/11/11 01:03:08;;;;;;;44.43;27.30;;;;;;;9.39;100.00;95570.00;5030287;28;20703;-60
2022/11/11 01:05:35;;;;;;;44.90;24.73;;;;;;;9.61;100.00;95577.84;5030745;28;20636;-60
2022/11/11 01:08:00;;;;;;;43.13;26.83;;;;;;;9.71;100.00;95583.94;5032336;28;20608;-60
2022/11/11 01:10:38;;;;;;;39.40;24.87;;;;;;;9.80;100.00;95580.75;5032547;28;20230;-60
2022/11/11 01:13:15;;;;;;;42.87;26.70;;;;;;;9.79;100.00;95576.63;5032418;28;20233;-63
2022/11/11 01:15:46;;;;;;;42.73;25.27;;;;;;;9.72;100.00;95565.22;5032292;28;20206;-61
2022/11/11 01:18:13;;;;;;;42.23;25.93;;;;;;;9.86;100.00;95580.34;5032142;28;20249;-60
2022/11/11 01:20:39;;;;;;;41.73;25.10;;;;;;;9.82;100.00;95561.16;5032405;28;20210;-60
2022/11/11 01:23:05;;;;;;;36.93;24.10;;;;;;;9.85;100.00;95568.59;5032349;28;20194;-58
2022/11/11 01:25:38;;;;;;;35.73;22.97;;;;;;;9.81;100.00;95567.16;5032513;28;20627;-62
2022/11/11 01:28:05;;;;;;;37.73;23.57;;;;;;;9.68;100.00;95566.34;5032077;28;20197;-61
2022/11/11 01:30:33;;;;;;;37.00;23.60;;;;;;;9.71;100.00;95573.78;5032065;28;20214;-59
2022/11/11 01:32:58;;;;;;;38.47;23.80;;;;;;;9.72;100.00;95567.78;5032123;28;20197;-60
2022/11/11 01:35:24;;;;;;;38.70;23.40;;;;;;;9.63;100.00;95563.31;5032057;28;20210;-62
2022/11/11 01:37:49;;;;;;;40.13;24.90;;;;;;;9.66;100.00;95570.72;5031930;28;20210;-59
2022/11/11 01:40:15;;;;;;;37.07;23.73;;;;;;;9.66;100.00;95569.91;5031837;28;20242;-60
2022/11/11 01:42:52;;;;;;;36.20;22.57;;;;;;;9.79;100.00;95570.72;5031890;28;20564;-60
2022/11/11 01:45:56;;;;;;;39.87;23.33;;;;;;;9.86;100.00;95567.66;5031988;28;20217;-60
2022/11/11 01:51:39;;;;;;;42.03;24.73;;;;;;;9.97;100.00;95580.47;5031952;28;20237;-61
2022/11/11 01:54:09;;;;;;;40.63;24.47;;;;;;;9.80;100.00;95568.06;5012346;28;20198;-57
2022/11/11 01:56:35;;;;;;;41.33;25.43;;;;;;;9.63;100.00;95573.47;5029561;28;20403;-60
2022/11/11 01:59:08;;;;;;;42.93;25.20;;;;;;;9.70;100.00;95577.22;5031078;28;20229;-60
2022/11/11 02:01:35;;;;;;;41.07;24.57;;;;;;;9.71;100.00;95576.31;5014803;28;20186;-62
2022/11/11 02:06:52;;;;;;;40.40;25.53;;;;;;;9.80;100.00;95578.22;5031797;28;20562;-58
2022/11/11 02:09:20;;;;;;;43.87;25.00;;;;;;;9.83;100.00;95583.13;5031552;28;20252;-58
2022/11/11 02:14:35;;;;;;;39.27;25.27;;;;;;;9.67;100.00;95590.13;5031839;28;20701;-60
2022/11/11 02:17:04;;;;;;;35.97;22.63;;;;;;;9.75;100.00;95592.97;5013713;28;22080;-61
2022/11/11 02:19:49;;;;;;;39.93;24.60;;;;;;;9.80;100.00;95588.38;5031475;28;20217;-59
2022/11/11 02:22:39;;;;;;;43.13;23.93;;;;;;;9.68;100.00;95594.28;5031197;28;20194;-60
2022/11/11 02:25:08;;;;;;;41.87;24.70;;;;;;;9.54;100.00;95596.09;5013804;28;20245;-61
2022/11/11 02:27:39;;;;;;;40.63;25.27;;;;;;;9.59;100.00;95594.91;5030755;28;20672;-61
2022/11/11 02:30:14;;;;;;;35.77;23.07;;;;;;;9.62;100.00;95596.41;5030410;28;20416;-61
2022/11/11 02:32:40;;;;;;;40.13;23.70;;;;;;;9.63;100.00;95590.41;5029071;28;20170;-61
2022/11/11 02:35:18;;;;;;;44.00;26.67;;;;;;;9.59;100.00;95599.97;5011530;28;20210;-61
2022/11/11 02:37:48;;;;;;;45.37;26.07;;;;;;;9.70;100.00;95596.69;5029930;28;20590;-58
2022/11/11 02:40:19;;;;;;;44.70;27.60;;;;;;;9.64;100.00;95595.38;5030891;28;20207;-61
2022/11/11 02:42:44;;;;;;;42.57;26.27;;;;;;;9.65;100.00;95591.13;5031273;28;20186;-58
2022/11/11 02:45:10;;;;;;;42.50;24.57;;;;;;;9.56;100.00;95594.25;5030966;28;20597;-61
2022/11/11 02:47:35;;;;;;;39.63;25.70;;;;;;;9.44;100.00;95593.34;5030987;28;20277;-58
2022/11/11 02:50:01;;;;;;;42.83;26.73;;;;;;;9.53;100.00;95594.47;5031340;28;20232;-60
2022/11/11 02:52:26;;;;;;;39.83;25.80;;;;;;;9.57;100.00;95603.50;5030953;28;20186;-62
2022/11/11 02:54:52;;;;;;;50.03;29.53;;;;;;;9.72;100.00;95599.94;5030814;28;20603;-63
2022/11/11 02:57:20;;;;;;;44.47;26.43;;;;;;;9.79;100.00;95608.81;5030728;28;20297;-60
2022/11/11 02:59:45;;;;;;;47.20;27.80;;;;;;;9.83;100.00;95615.31;5030880;28;20209;-61
2022/11/11 03:02:11;;;;;;;55.67;35.00;;;;;;;9.94;100.00;95641.59;5013068;28;20186;-60
2022/11/11 03:04:37;;;;;;;56.37;33.57;;;;;;;9.86;100.00;95673.50;5030830;28;20283;-61
2022/11/11 03:07:03;;;;;;;53.97;33.80;;;;;;;9.89;100.00;95712.22;5030598;28;20182;-59
2022/11/11 03:09:29;;;;;;;54.70;33.20;;;;;;;9.75;100.00;95698.78;5030689;28;20217;-62
2022/11/11 03:11:54;;;;;;;55.23;33.13;;;;;;;9.63;100.00;95695.31;5028977;28;20640;-60
2022/11/11 03:14:20;;;;;;;54.97;33.17;;;;;;;9.49;100.00;95679.34;5028986;28;20282;-61
2022/11/11 03:19:29;;;;;;;58.63;32.70;;;;;;;9.11;100.00;95656.41;5030859;28;20752;-60
2022/11/11 03:21:55;;;;;;;56.47;34.40;;;;;;;9.00;100.00;95641.03;5030687;28;20269;-59
2022/11/11 03:24:21;;;;;;;57.80;34.67;;;;;;;8.86;100.00;95623.34;5030436;28;20256;-62
2022/11/11 03:26:47;;;;;;;53.90;31.97;;;;;;;8.70;100.00;95613.34;5030835;28;20683;-62
2022/11/11 03:29:12;;;;;;;54.87;31.47;;;;;;;8.56;100.00;95607.50;5030483;28;20206;-62
2022/11/11 03:31:37;;;;;;;51.60;31.70;;;;;;;8.41;100.00;95594.03;5030392;28;20198;-62
2022/11/11 03:34:18;;;;;;;54.10;32.23;;;;;;;8.43;100.00;95600.66;5030853;28;20210;-63
2022/11/11 03:39:28;;;;;;;52.87;30.77;;;;;;;8.47;100.00;95601.25;5033489;28;20271;-60
2022/11/11 03:41:57;;;;;;;54.43;32.47;;;;;;;8.52;100.00;95603.53;5032219;28;20248;-59
2022/11/11 03:44:23;;;;;;;55.23;31.07;;;;;;;8.67;100.00;95610.16;5031430;28;20202;-58
2022/11/11 03:46:48;;;;;;;51.03;32.43;;;;;;;8.74;100.00;95607.19;5032702;28;20265;-59
2022/11/11 03:49:13;;;;;;;51.47;32.37;;;;;;;8.83;100.00;95619.25;5033898;28;20208;-59
2022/11/11 03:51:39;;;;;;;54.00;32.07;;;;;;;8.64;100.00;95597.69;5032490;28;20264;-60
2022/11/11 03:54:05;;;;;;;51.93;30.70;;;;;;;8.55;100.00;95583.88;5033417;28;20249;-60
2022/11/11 03:56:30;;;;;;;55.53;31.97;;;;;;;8.71;100.00;95607.34;5016194;28;20656;-64
2022/11/11 03:58:55;;;;;;;53.47;30.40;;;;;;;8.66;100.00;95603.50;5033655;28;20221;-62
2022/11/11 04:12:16;;;;;;;45.53;27.37;;;;;;;9.14;100.00;95591.06;5033375;28;20260;-61
2022/11/11 04:17:32;;;;;;;50.80;29.83;;;;;;;9.37;100.00;95604.81;5032519;28;20220;-61
2022/11/11 04:22:42;;;;;;;47.17;28.37;;;;;;;9.61;100.00;95602.41;5030911;28;20737;-60
2022/11/11 04:29:27;;;;;;;45.23;27.07;;;;;;;9.72;100.00;95598.22;5033399;28;20221;-59
2022/11/11 04:30:41;;;;;;;48.63;28.40;;;;;;;9.77;100.00;95601.31;5033200;28;20297;-58
2022/11/11 04:33:07;;;;;;;45.83;27.27;;;;;;;9.83;100.00;95605.16;5033102;28;20254;-60
2022/11/11 04:35:33;;;;;;;46.60;29.57;;;;;;;9.85;100.00;95599.06;5031723;28;20321;-59
2022/11/11 04:43:26;;;;;;;44.33;27.97;;;;;;;10.07;100.00;95599.25;5053569;28;20193;-58
2022/11/11 04:45:51;;;;;;;44.40;26.57;;;;;;;10.12;100.00;95604.84;5052406;28;20206;-62
2022/11/11 04:48:17;;;;;;;40.43;25.63;;;;;;;10.25;100.00;95602.28;5053227;28;20278;-61
2022/11/11 04:50:43;;;;;;;40.73;25.77;;;;;;;10.31;100.00;95611.22;5052909;28;20193;-60
2022/11/11 04:53:13;;;;;;;40.93;24.30;;;;;;;10.34;100.00;95606.75;5035015;28;20189;-59
2022/11/11 04:58:28;;;;;;;40.53;23.80;;;;;;;10.41;100.00;95604.59;5052904;28;20243;-58
2022/11/11 05:00:54;;;;;;;38.13;20.97;;;;;;;10.43;100.00;95615.47;5052653;28;20201;-60
2022/11/11 05:03:23;;;;;;;35.47;22.80;;;;;;;10.51;100.00;95611.47;5052676;28;20186;-59
2022/11/11 05:11:19;;;;;;;33.80;22.30;;;;;;;10.57;100.00;95605.97;5052652;28;20247;-58
2022/11/11 05:22:23;;;;;;;33.10;21.00;;;;;;;10.70;100.00;95616.09;5052362;28;20292;-58
2022/11/11 05:27:33;;;;;;;31.20;19.70;;;;;;;10.67;100.00;95626.47;5052279;28;20255;-62
2022/11/11 05:29:58;;;;;;;31.50;20.03;;;;;;;10.69;100.00;95629.72;5034212;28;20213;-61
2022/11/11 05:32:25;;;;;;;33.03;21.17;;;;;;;10.62;100.00;95624.28;5051912;28;20567;-60
2022/11/11 05:34:51;;;;;;;32.20;19.90;;;;;;;10.66;100.00;95632.50;5052002;28;20213;-61
2022/11/11 05:37:16;;;;;;;32.87;20.30;;;;;;;10.64;100.00;95641.97;5051991;28;20674;-59
2022/11/11 05:39:42;;;;;;;31.93;20.30;;;;;;;10.66;100.00;95642.66;5051987;28;20219;-62
2022/11/11 05:42:09;;;;;;;27.77;17.50;;;;;;;10.72;100.00;95642.25;5052282;28;20599;-59
2022/11/11 05:44:34;;;;;;;32.23;19.63;;;;;;;10.68;100.00;95656.09;5051666;28;20217;-56
2022/11/11 05:47:00;;;;;;;33.23;20.60;;;;;;;10.70;100.00;95646.63;5051583;28;20190;-56
2022/11/11 05:49:26;;;;;;;27.37;18.73;;;;;;;10.62;100.00;95659.06;5050653;28;20248;-60
2022/11/11 05:51:52;;;;;;;29.80;18.17;;;;;;;10.63;100.00;95663.22;5049499;28;20655;-61
2022/11/11 05:54:17;;;;;;;29.97;19.67;;;;;;;10.76;100.00;95672.44;5051090;28;20282;-61
2022/11/11 05:56:43;;;;;;;34.80;21.87;;;;;;;10.80;100.00;95675.59;5051498;28;20190;-60
2022/11/11 05:59:09;;;;;;;37.80;23.17;;;;;;;10.83;100.00;95685.53;5050504;28;20214;-60
2022/11/11 06:01:36;;;;;;;36.97;23.73;;;;;;;10.85;100.00;95699.78;5051604;28;20560;-57
2022/11/11 06:04:02;;;;;;;34.20;21.83;;;;;;;10.80;100.00;95698.47;5051714;28;20228;-60
2022/11/11 06:06:27;;;;;;;36.33;21.93;;;;;;;10.80;100.00;95713.75;5051511;28;20185;-61
2022/11/11 06:08:53;;;;;;;34.40;22.30;;;;;;;10.61;100.00;95714.19;5051479;28;20185;-58
2022/11/11 06:11:18;;;;;;;34.57;22.67;;;;;;;10.45;100.00;95705.97;5051506;28;20181;-61
2022/11/11 06:13:44;;;;;;;37.53;24.03;;;;;;;10.62;100.00;95725.16;5051767;28;20189;-61
2022/11/11 06:16:09;;;;;;;37.97;23.53;;;;;;;10.48;100.00;95720.19;5051651;28;20261;-58
2022/11/11 06:18:35;;;;;;;39.07;23.63;;;;;;;10.55;100.00;95732.38;5051221;28;20691;-59
2022/11/11 06:21:01;;;;;;;37.97;23.30;;;;;;;10.49;100.00;95721.81;5051033;28;20217;-59
2022/11/11 06:23:28;;;;;;;37.30;23.23;;;;;;;10.47;100.00;95716.84;5051222;28;20713;-60
2022/11/11 06:26:12;;;;;;;38.03;22.53;;;;;;;10.55;100.00;95729.03;5049700;28;20681;-60
2022/11/11 06:28:47;;;;;;;37.67;23.47;;;;;;;10.63;100.00;95736.94;5032581;28;20205;-59
2022/11/11 06:31:15;;;;;;;32.13;21.73;;;;;;;10.73;100.00;95735.41;5051231;28;20195;-61
2022/11/11 06:33:41;;;;;;;32.00;21.60;;;;;;;10.62;100.00;95717.53;5033423;28;20724;-59
2022/11/11 06:36:08;;;;;;;31.07;21.93;;;;;;;10.52;100.00;95699.56;5051127;28;20254;-62
2022/11/11 06:38:33;;;;;;;28.73;18.90;;;;;;;10.41;100.00;95709.63;5051332;28;20220;-60
2022/11/11 06:40:59;;;;;;;31.13;19.80;;;;;;;10.41;100.00;95709.63;5050896;28;20201;-59
2022/11/11 06:43:24;;;;;;;29.80;18.93;;;;;;;10.41;100.00;95717.25;5051591;28;20194;-63
2022/11/11 06:45:51;;;;;;;29.90;19.57;;;;;;;10.50;100.00;95723.44;5051319;28;20584;-61
2022/11/11 06:48:17;;;;;;;30.47;18.63;;;;;;;10.47;100.00;95726.19;5051413;28;20671;-61
2022/11/11 06:50:43;;;;;;;32.63;20.13;;;;;;;10.44;100.00;95722.16;5050958;28;20267;-61
2022/11/11 06:53:11;;;;;;;32.67;19.67;;;;;;;10.48;100.00;95720.19;5051111;28;20194;-61
2022/11/11 06:55:37;;;;;;;30.57;19.63;;;;;;;10.45;100.00;95728.00;5051115;28;20201;-62
2022/11/11 06:58:05;;;;;;;34.37;21.20;;;;;;;10.44;100.00;95726.41;5051338;28;20591;-60
2022/11/11 07:00:31;;;;;;;32.97;19.80;;;;;;;10.46;100.00;95725.41;5051020;28;20201;-60
2022/11/11 07:02:57;;;;;;;31.60;19.73;;;;;;;10.39;100.00;95726.72;5050662;28;20243;-61
2022/11/11 07:05:22;;;;;;;30.50;19.63;;;;;;;10.44;100.00;95727.22;5050681;28;20284;-60
2022/11/11 07:07:48;;;;;;;31.13;18.80;;;;;;;10.40;100.00;95719.91;5050915;28;20194;-61
2022/11/11 07:10:14;;;;;;;32.97;19.70;;;;;;;10.41;100.00;95727.41;5050606;28;20193;-59
2022/11/11 07:12:40;;;;;;;31.97;18.57;;;;;;;10.57;100.00;95727.19;5050873;28;20251;-58
2022/11/11 07:15:07;;;;;;;28.70;17.90;;;;;;;10.55;100.00;95729.84;5050523;28;20217;-62
2022/11/11 07:17:33;;;;;;;32.20;20.00;;;;;;;10.48;100.00;95733.72;5032457;28;20221;-61
2022/11/11 07:19:58;;;;;;;29.57;17.80;;;;;;;10.40;100.00;95735.97;5050779;28;20209;-59
2022/11/11 07:22:24;;;;;;;24.60;16.53;;;;;;;10.31;100.00;95728.13;5051180;28;20251;-61
2022/11/11 07:24:49;;;;;;;25.10;16.70;;;;;;;10.23;100.00;95738.81;5050602;28;20224;-62
2022/11/11 07:27:15;;;;;;;26.23;16.93;;;;;;;10.23;100.00;95733.72;5050441;28;20217;-60
2022/11/11 07:29:40;;;;;;;27.33;17.10;;;;;;;10.18;100.00;95735.75;5050401;28;20686;-61
2022/11/11 07:32:06;;;;;;;28.53;17.07;;;;;;;10.24;100.00;95742.16;5050587;28;20242;-61
2022/11/11 07:34:31;;;;;;;30.90;17.30;;;;;;;10.26;100.00;95740.34;5050270;28;20220;-61
2022/11/11 07:36:57;;;;;;;25.20;16.33;;;;;;;10.33;100.00;95749.16;5050146;28;20193;-60
2022/11/11 07:39:22;;;;;;;30.30;18.03;;;;;;;10.28;100.00;95751.22;5050216;28;20732;-61
2022/11/11 07:41:47;;;;;;;26.00;17.07;;;;;;;10.32;100.00;95748.38;5050026;28;20182;-62
2022/11/11 07:44:13;;;;;;;31.87;18.90;;;;;;;10.22;100.00;95746.53;5050268;28;20224;-62
2022/11/11 07:46:38;;;;;;;27.20;17.47;;;;;;;10.29;100.00;95755.38;5049976;28;20189;-62
2022/11/11 07:49:04;;;;;;;27.80;17.53;;;;;;;10.23;100.00;95748.97;5050179;28;20209;-62
2022/11/11 07:51:29;;;;;;;28.83;17.03;;;;;;;10.26;100.00;95768.28;5050296;28;20181;-62
2022/11/11 07:53:55;;;;;;;27.90;17.03;;;;;;;10.32;100.00;95762.81;5050495;28;20232;-59
2022/11/11 07:56:20;;;;;;;29.90;18.40;;;;;;;10.34;100.00;95766.88;5050161;28;20193;-58
2022/11/11 07:58:45;;;;;;;26.83;17.47;;;;;;;10.44;100.00;95764.53;5049995;28;20217;-62
2022/11/11 08:01:11;;;;;;;32.17;18.60;;;;;;;10.47;100.00;95771.94;5049931;28;20251;-57
2022/11/11 08:03:48;;;;;;;27.40;17.33;;;;;;;10.49;100.00;95767.56;5049924;28;20228;-60
2022/11/11 08:06:18;;;;;;;26.13;16.70;;;;;;;10.41;100.00;95777.44;5050246;28;20189;-61
2022/11/11 08:08:44;;;;;;;20.67;14.83;;;;;;;10.36;100.00;95787.09;5050441;28;20194;-62
2022/11/11 08:11:09;;;;;;;28.00;15.53;;;;;;;10.31;100.00;95772.16;5049928;28;20194;-59
2022/11/11 08:13:41;;;;;;;24.77;15.53;;;;;;;10.32;100.00;95761.09;5050193;28;20201;-60
2022/11/11 08:16:08;;;;;;;31.00;16.40;;;;;;;10.26;100.00;95783.53;5049957;28;20244;-61
2022/11/11 08:18:34;;;;;;;26.87;16.33;;;;;;;10.25;100.00;95784.44;5050072;28;20283;-60
2022/11/11 08:21:01;;;;;;;26.67;16.10;;;;;;;10.22;100.00;95793.06;5050394;28;20232;-58
2022/11/11 08:23:36;;;;;;;27.77;14.90;;;;;;;10.19;100.00;95792.47;5053284;28;20284;-58
2022/11/11 08:26:04;;;;;;;21.93;13.77;;;;;;;10.28;100.00;95791.88;5053205;28;20211;-62
2022/11/11 08:28:32;;;;;;;25.33;13.93;;;;;;;10.33;100.00;95787.28;5053602;28;20272;-60
2022/11/11 08:30:59;;;;;;;27.53;16.17;;;;;;;10.37;100.00;95798.88;5053095;28;20262;-60
2022/11/11 08:33:25;;;;;;;25.80;15.40;;;;;;;10.34;100.00;95797.38;5053469;28;20197;-61
2022/11/11 08:35:53;;;;;;;26.87;16.37;;;;;;;10.34;100.00;95792.28;5052931;28;20209;-61
2022/11/11 08:38:19;;;;;;;25.80;14.50;;;;;;;10.46;100.00;95788.13;5034931;28;20217;-59
2022/11/11 08:40:44;;;;;;;24.03;14.43;;;;;;;10.58;100.00;95800.84;5052741;28;20209;-61
2022/11/11 08:43:10;;;;;;;20.97;14.97;;;;;;;10.53;100.00;95802.88;5053379;28;20188;-57
2022/11/11 08:45:35;;;;;;;23.23;15.40;;;;;;;10.64;100.00;95804.72;5052855;28;20214;-61
2022/11/11 08:48:00;;;;;;;23.93;13.40;;;;;;;10.75;100.00;95812.41;5052768;28;20675;-60
2022/11/11 08:50:26;;;;;;;21.83;14.43;;;;;;;10.71;100.00;95809.28;5053009;28;20254;-61
2022/11/11 08:52:52;;;;;;;23.63;14.20;;;;;;;10.78;100.00;95807.13;5053018;28;20204;-62
2022/11/11 08:55:18;;;;;;;20.37;13.27;;;;;;;10.88;100.00;95819.16;5052616;28;20257;-60
2022/11/11 08:57:44;;;;;;;24.67;14.83;;;;;;;11.02;100.00;95825.84;5052930;28;20319;-61
2022/11/11 09:00:10;;;;;;;20.97;12.57;;;;;;;11.06;100.00;95829.81;5052596;28;20270;-60
2022/11/11 09:02:36;;;;;;;22.57;13.20;;;;;;;11.17;100.00;95834.97;5052838;28;20217;-60
2022/11/11 09:05:02;;;;;;;19.40;13.53;;;;;;;11.16;100.00;95847.81;5050973;28;20721;-62
2022/11/11 09:07:28;;;;;;;19.50;13.17;;;;;;;11.03;100.00;95819.81;5051017;28;20198;-60
2022/11/11 09:09:53;;;;;;;18.33;12.53;;;;;;;11.07;100.00;95816.16;5052335;28;20760;-59
2022/11/11 09:12:18;;;;;;;18.77;11.70;;;;;;;11.06;100.00;95827.25;5052523;28;20267;-60
2022/11/11 09:14:44;;;;;;;17.50;12.23;;;;;;;11.04;100.00;95816.38;5052401;28;20208;-58
2022/11/11 09:17:09;;;;;;;16.80;11.97;;;;;;;11.01;100.00;95814.03;5034312;28;20201;-60
2022/11/11 09:19:35;;;;;;;16.43;11.50;;;;;;;11.07;100.00;95813.59;5052169;28;20853;-61
2022/11/11 09:22:00;;;;;;;17.87;11.73;;;;;;;11.17;100.00;95824.00;5034351;28;20237;-63
2022/11/11 09:24:27;;;;;;;17.10;11.60;;;;;;;11.16;100.00;95825.72;5052457;28;20213;-59
2022/11/11 09:26:52;;;;;;;17.97;12.50;;;;;;;11.13;100.00;95823.38;5052292;28;20293;-58
2022/11/11 09:29:18;;;;;;;18.63;11.00;;;;;;;11.14;100.00;95821.66;5059502;22;20621;-62
2022/11/11 09:31:45;;;;;;;18.83;12.53;;;;;;;11.18;100.00;95825.59;5052168;28;20683;-62
2022/11/11 09:34:10;;;;;;;20.33;11.10;;;;;;;11.23;100.00;95839.63;5052004;28;20705;-61
2022/11/11 09:36:36;;;;;;;15.77;10.77;;;;;;;11.26;100.00;95836.09;5052084;28;20710;-61
2022/11/11 09:39:01;;;;;;;15.73;10.70;;;;;;;11.23;100.00;95828.66;5052056;28;21241;-61
2022/11/11 09:42:18;;;;;;;16.67;11.17;;;;;;;11.27;100.00;95825.78;5051951;28;20182;-63
2022/11/11 09:44:52;;;;;;;18.53;10.70;;;;;;;11.36;100.00;95847.25;4971041;28;20220;-62
2022/11/11 09:47:21;;;;;;;15.43;7.97;;;;;;;11.38;100.00;95853.88;5039734;28;20205;-62
2022/11/11 09:50:00;;;;;;;13.27;9.60;;;;;;;11.41;100.00;95860.50;5051712;28;20229;-62
2022/11/11 09:52:29;;;;;;;17.90;9.40;;;;;;;11.46;100.00;95858.44;5051787;28;20196;-60
2022/11/11 09:55:12;;;;;;;15.03;9.80;;;;;;;11.51;100.00;95848.75;5051568;28;20610;-60
2022/11/11 09:57:43;;;;;;;11.63;8.30;;;;;;;11.50;100.00;95853.03;5051826;28;20217;-63
2022/11/11 10:00:26;;;;;;;15.40;9.50;;;;;;;11.52;100.00;95852.91;5051636;28;20216;-61
2022/11/11 10:02:56;;;;;;;17.53;9.10;;;;;;;11.60;100.00;95846.38;5034093;28;20200;-58
2022/11/11 10:05:21;;;;;;;16.53;9.87;;;;;;;11.70;100.00;95847.41;5033560;28;20685;-59
2022/11/11 10:07:57;;;;;;;18.27;10.17;;;;;;;11.76;100.00;95854.63;5051344;28;20217;-60
2022/11/11 10:10:43;;;;;;;15.43;10.47;;;;;;;11.86;100.00;95856.53;5051648;28;20239;-63
2022/11/11 10:13:15;;;;;;;19.07;10.63;;;;;;;11.98;100.00;95864.09;5051989;28;20278;-60
2022/11/11 10:16:02;;;;;;;15.33;9.40;;;;;;;12.10;100.00;95865.00;5051579;28;20221;-61
2022/11/11 10:18:49;;;;;;;12.13;8.33;;;;;;;12.01;100.00;95878.38;5051560;28;20209;-61
2022/11/11 10:21:23;;;;;;;11.80;9.20;;;;;;;12.06;100.00;95894.16;5051428;28;20193;-59
2022/11/11 10:23:54;;;;;;;12.07;8.57;;;;;;;12.23;100.00;95901.41;5051271;28;20189;-59
2022/11/11 10:26:31;;;;;;;15.30;9.33;;;;;;;12.43;100.00;95916.94;5033448;28;20209;-62
2022/11/11 10:28:58;;;;;;;11.87;7.93;;;;;;;12.79;100.00;95945.78;5051118;28;20318;-62
2022/11/11 10:31:24;;;;;;;9.80;7.50;;;;;;;12.56;100.00;95932.16;5050995;28;20718;-60
2022/11/11 10:33:58;;;;;;;11.70;8.57;;;;;;;12.50;100.00;95907.09;5051116;28;20181;-63
2022/11/11 10:36:25;;;;;;;10.53;8.20;;;;;;;12.48;100.00;95911.50;5051188;28;20185;-58
2022/11/11 10:38:58;;;;;;;11.03;8.27;;;;;;;12.44;100.00;95902.44;5050792;28;20288;-60
2022/11/11 10:41:45;;;;;;;11.33;8.20;;;;;;;12.29;100.00;95870.38;5051075;28;20182;-62
2022/11/11 10:44:36;;;;;;;11.80;8.00;;;;;;;12.29;100.00;95876.31;5050334;28;20694;-62
2022/11/11 10:47:10;;;;;;;13.80;8.13;;;;;;;12.29;100.00;95844.88;5032854;28;20555;-63
2022/11/11 10:49:49;;;;;;;12.53;8.37;;;;;;;12.30;100.00;95866.91;5050682;28;20220;-62
2022/11/11 10:52:34;;;;;;;11.13;7.70;;;;;;;12.19;100.00;95846.47;5050789;28;20236;-61
2022/11/11 10:55:37;;;;;;;9.97;7.13;;;;;;;12.04;100.00;95847.59;5051268;28;20732;-58
2022/11/11 10:58:08;;;;;;;12.70;8.20;;;;;;;11.99;100.00;95844.53;5019677;28;20229;-62
2022/11/11 11:00:36;;;;;;;11.03;8.10;;;;;;;11.99;100.00;95850.44;5033106;28;20226;-62
2022/11/11 11:03:15;;;;;;;15.57;8.47;;;;;;;12.05;100.00;95846.66;5051005;28;20316;-62
2022/11/11 11:06:09;;;;;;;10.90;8.40;;;;;;;12.27;100.00;95884.97;5050633;28;20216;-60
2022/11/11 11:08:58;;;;;;;12.10;8.60;;;;;;;12.27;100.00;95887.53;5050535;28;20220;-61
2022/11/11 11:11:27;;;;;;;12.90;7.97;;;;;;;12.47;100.00;95925.16;5043044;28;20263;-62
2022/11/11 11:13:59;;;;;;;10.40;7.57;;;;;;;12.53;100.00;95933.19;5050496;28;20566;-61
2022/11/11 11:16:34;;;;;;;10.17;7.60;;;;;;;12.43;100.00;95932.22;5050396;28;20182;-62
2022/11/11 11:19:20;;;;;;;10.43;7.73;;;;;;;12.38;100.00;95933.50;5050304;28;20312;-60
2022/11/11 11:21:55;;;;;;;9.87;7.23;;;;;;;12.43;100.00;95919.47;5050408;28;20178;-58
2022/11/11 11:24:36;;;;;;;9.53;7.10;;;;;;;12.44;100.00;95930.50;5050137;28;20227;-59
2022/11/11 11:27:06;;;;;;;9.27;6.73;;;;;;;12.58;100.00;95933.66;5032233;28;20190;-62
2022/11/11 11:29:35;;;;;;;9.57;6.93;;;;;;;12.71;100.00;95965.94;5050174;28;20270;-62
2022/11/11 11:32:18;;;;;;;9.43;6.80;;;;;;;12.80;100.00;95961.00;5050156;28;20240;-60
2022/11/11 11:34:52;;;;;;;10.03;7.87;;;;;;;12.80;100.00;95940.59;5050290;28;20216;-60
2022/11/11 11:37:19;;;;;;;9.43;7.17;;;;;;;12.84;100.00;95959.88;5050154;28;20196;-61
2022/11/11 11:39:45;;;;;;;12.70;7.73;;;;;;;12.75;100.00;95952.03;5050351;28;20229;-61
2022/11/11 11:42:27;;;;;;;12.60;7.43;;;;;;;12.73;100.00;95949.59;5050248;28;20184;-62
2022/11/11 11:44:53;;;;;;;8.50;6.10;;;;;;;12.88;100.00;95993.63;5050303;28;20293;-61
2022/11/11 11:47:21;;;;;;;7.60;5.50;;;;;;;12.77;100.00;95999.50;5050220;28;20269;-59
2022/11/11 11:49:53;;;;;;;7.53;6.00;;;;;;;12.71;100.00;95971.88;5050226;28;20212;-61
2022/11/11 11:52:22;;;;;;;7.77;5.87;;;;;;;12.78;100.00;95959.50;5050213;28;20202;-60
2022/11/11 11:55:02;;;;;;;9.73;5.63;;;;;;;12.85;100.00;95974.25;5049966;28;20292;-59
2022/11/11 11:57:46;;;;;;;7.80;5.60;;;;;;;12.90;100.00;96002.81;5052756;28;20307;-61
2022/11/11 12:00:29;;;;;;;7.17;5.33;;;;;;;12.78;100.00;95993.50;5054093;28;20243;-61
2022/11/11 12:03:12;;;;;;;9.73;6.17;;;;;;;12.68;100.00;95993.31;5053364;28;20185;-60
2022/11/11 12:05:44;;;;;;;7.20;5.43;;;;;;;12.56;100.00;95975.53;5053718;28;20209;-60
2022/11/11 12:08:43;;;;;;;7.83;5.60;;;;;;;12.50;100.00;95965.78;5053342;28;20216;-61
2022/11/11 12:11:36;;;;;;;9.37;5.77;;;;;;;12.40;100.00;95950.28;5053452;28;20209;-60
2022/11/11 12:14:28;;;;;;;8.73;5.90;;;;;;;12.39;100.00;95937.66;5053357;28;20214;-60
2022/11/11 12:17:25;;;;;;;8.60;6.10;;;;;;;12.48;100.00;95944.66;5035303;28;20240;-61
2022/11/11 12:19:59;;;;;;;8.10;5.90;;;;;;;12.47;100.00;95943.03;5053545;28;20213;-60
2022/11/11 12:22:40;;;;;;;8.13;5.90;;;;;;;12.51;100.00;95940.16;5035292;28;20196;-62
2022/11/11 12:25:35;;;;;;;6.80;5.37;;;;;;;12.57;100.00;95939.69;5053433;28;20232;-62
2022/11/11 12:28:25;;;;;;;7.37;4.80;;;;;;;12.49;100.00;95944.53;5053528;28;20243;-62
2022/11/11 12:31:05;;;;;;;7.87;5.47;;;;;;;12.48;100.00;95929.34;5053172;28;20758;-61
2022/11/11 12:34:00;;;;;;;7.57;5.33;;;;;;;12.46;100.00;95928.66;5052973;28;20224;-62
2022/11/11 12:36:37;;;;;;;8.23;5.43;;;;;;;12.50;100.00;95930.06;5052247;28;20213;-63
2022/11/11 12:39:30;;;;;;;7.43;5.33;;;;;;;12.68;100.00;95944.84;5052955;28;20590;-60